sensor_id;sensor_type;location;lat;lon;timestamp;P1;durP1;ratioP1;P2;durP2;ratioP2
44126;SDS011;29786;50.798;7.302;2023-03-12T00:00:59;6.1;;;3.9;;
44126;SDS011;29786;50.798;7.302;2023-03-12T00:02:13;5.8;;;4.1;;
44126;SDS011;29786;50.798;7.302;2023-03-12T00:04:41;5.4;;;3.8;;
44126;SDS011;29786;50.798;7.302;2023-03-12T00:05:55;7;;;4.3;;
44126;SDS011;29786;50.798;7.302;2023-03-12T00:07:09;4.8;;;3.7;;
44126;SDS011;29786;50.798;7.302;2023-03-12T00:08:23;6.6;;;3.7;;
44126;SDS011;29786;50.798;7.302;2023-03-12T00:10:52;7.7;;;4.4;;
44126;SDS011;29786;50.798;7.302;2023-03-12T00:12:06;6.7;;;3.8;;
44126;SDS011;29786;50.798;7.302;2023-03-12T00:13:20;5.5;;;3.9;;
44126;SDS011;29786;50.798;7.302;2023-03-12T00:15:48;8.2;;;4.3;;
44126;SDS011;29786;50.798;7.302;2023-03-12T00:17:02;7.2;;;3.8;;
44126;SDS011;29786;50.798;7.302;2023-03-12T00:18:17;8;;;3.9;;
44126;SDS011;29786;50.798;7.302;2023-03-12T00:20:51;5.7;;;4;;
44126;SDS011;29786;50.798;7.302;2023-03-12T00:21:59;6.3;;;3.7;;
44126;SDS011;29786;50.798;7.302;2023-03-12T00:23:13;7.2;;;3.5;;
44126;SDS011;29786;50.798;7.302;2023-03-12T00:25:41;10.2;;;4.4;;
44126;SDS011;29786;50.798;7.302;2023-03-12T00:26:55;5.3;;;4.1;;
44126;SDS011;29786;50.798;7.302;2023-03-12T00:28:10;6.2;;;4.1;;
44126;SDS011;29786;50.798;7.302;2023-03-12T00:30:38;6.9;;;3.9;;
44126;SDS011;29786;50.798;7.302;2023-03-12T00:31:52;5.7;;;3.8;;
44126;SDS011;29786;50.798;7.302;2023-03-12T00:33:06;6.6;;;4;;
44126;SDS011;29786;50.798;7.302;2023-03-12T00:34:20;5.9;;;4;;
44126;SDS011;29786;50.798;7.302;2023-03-12T00:36:49;6.6;;;4.1;;
44126;SDS011;29786;50.798;7.302;2023-03-12T00:38:03;10.1;;;4.6;;
44126;SDS011;29786;50.798;7.302;2023-03-12T00:39:17;7.4;;;4.2;;
44126;SDS011;29786;50.798;7.302;2023-03-12T00:41:45;5.7;;;4.3;;
44126;SDS011;29786;50.798;7.302;2023-03-12T00:42:59;7.1;;;4.1;;
44126;SDS011;29786;50.798;7.302;2023-03-12T00:44:13;4.7;;;3.9;;
44126;SDS011;29786;50.798;7.302;2023-03-12T00:46:42;8.1;;;4.8;;
44126;SDS011;29786;50.798;7.302;2023-03-12T00:47:56;6;;;4.4;;
44126;SDS011;29786;50.798;7.302;2023-03-12T00:49:10;9.7;;;4.3;;
44126;SDS011;29786;50.798;7.302;2023-03-12T00:51:38;6;;;3.9;;
44126;SDS011;29786;50.798;7.302;2023-03-12T00:52:52;7.5;;;4.1;;
44126;SDS011;29786;50.798;7.302;2023-03-12T00:54:06;6.8;;;4.5;;
44126;SDS011;29786;50.798;7.302;2023-03-12T00:55:20;5.9;;;4.2;;
44126;SDS011;29786;50.798;7.302;2023-03-12T00:57:49;6.8;;;4.1;;
44126;SDS011;29786;50.798;7.302;2023-03-12T00:59:03;5.7;;;3.8;;
44126;SDS011;29786;50.798;7.302;2023-03-12T01:00:17;7;;;4.2;;
44126;SDS011;29786;50.798;7.302;2023-03-12T01:02:45;6.8;;;4.4;;
44126;SDS011;29786;50.798;7.302;2023-03-12T01:03:59;5.8;;;4;;
44126;SDS011;29786;50.798;7.302;2023-03-12T01:05:14;5.8;;;4.5;;
44126;SDS011;29786;50.798;7.302;2023-03-12T01:07:42;6.5;;;4.2;;
44126;SDS011;29786;50.798;7.302;2023-03-12T01:08:56;7.7;;;4.4;;
44126;SDS011;29786;50.798;7.302;2023-03-12T01:10:12;7.8;;;4.6;;
44126;SDS011;29786;50.798;7.302;2023-03-12T01:11:24;4.9;;;4.2;;
44126;SDS011;29786;50.798;7.302;2023-03-12T01:13:53;8.3;;;4.6;;
44126;SDS011;29786;50.798;7.302;2023-03-12T01:15:07;7.6;;;4.5;;
44126;SDS011;29786;50.798;7.302;2023-03-12T01:16:21;6.2;;;4.4;;
44126;SDS011;29786;50.798;7.302;2023-03-12T01:18:49;6.8;;;4.4;;
44126;SDS011;29786;50.798;7.302;2023-03-12T01:20:03;10.1;;;4.4;;
44126;SDS011;29786;50.798;7.302;2023-03-12T01:21:17;5.9;;;3.8;;
44126;SDS011;29786;50.798;7.302;2023-03-12T01:23:46;6.3;;;4.6;;
44126;SDS011;29786;50.798;7.302;2023-03-12T01:25:00;8.5;;;4.3;;
44126;SDS011;29786;50.798;7.302;2023-03-12T01:26:14;7.7;;;4.1;;
44126;SDS011;29786;50.798;7.302;2023-03-12T01:28:42;6;;;4.5;;
44126;SDS011;29786;50.798;7.302;2023-03-12T01:29:56;6.3;;;4.8;;
44126;SDS011;29786;50.798;7.302;2023-03-12T01:31:12;7.2;;;4.8;;
44126;SDS011;29786;50.798;7.302;2023-03-12T01:33:39;6.8;;;4.2;;
44126;SDS011;29786;50.798;7.302;2023-03-12T01:34:53;7.1;;;4.9;;
44126;SDS011;29786;50.798;7.302;2023-03-12T01:36:16;6.5;;;4.1;;
44126;SDS011;29786;50.798;7.302;2023-03-12T01:37:21;7.6;;;4.6;;
44126;SDS011;29786;50.798;7.302;2023-03-12T01:39:49;6.1;;;4.4;;
44126;SDS011;29786;50.798;7.302;2023-03-12T01:41:03;9.4;;;4.6;;
44126;SDS011;29786;50.798;7.302;2023-03-12T01:42:18;6.3;;;4.2;;
44126;SDS011;29786;50.798;7.302;2023-03-12T01:44:48;8.2;;;4.8;;
44126;SDS011;29786;50.798;7.302;2023-03-12T01:46:08;6.7;;;4.1;;
44126;SDS011;29786;50.798;7.302;2023-03-12T01:47:14;9.7;;;4.4;;
44126;SDS011;29786;50.798;7.302;2023-03-12T01:49:42;5.7;;;4.1;;
44126;SDS011;29786;50.798;7.302;2023-03-12T01:50:57;6.8;;;4.5;;
44126;SDS011;29786;50.798;7.302;2023-03-12T01:52:12;6;;;4.5;;
44126;SDS011;29786;50.798;7.302;2023-03-12T01:53:25;6.1;;;4.1;;
44126;SDS011;29786;50.798;7.302;2023-03-12T01:54:44;7.4;;;4.3;;
44126;SDS011;29786;50.798;7.302;2023-03-12T01:55:53;6.2;;;4.2;;
44126;SDS011;29786;50.798;7.302;2023-03-12T01:57:09;5.9;;;4.3;;
44126;SDS011;29786;50.798;7.302;2023-03-12T01:58:21;5.8;;;4.4;;
44126;SDS011;29786;50.798;7.302;2023-03-12T02:00:50;6.7;;;4.4;;
44126;SDS011;29786;50.798;7.302;2023-03-12T02:02:04;7.7;;;4.1;;
44126;SDS011;29786;50.798;7.302;2023-03-12T02:03:18;8.8;;;4.4;;
44126;SDS011;29786;50.798;7.302;2023-03-12T02:05:50;6.3;;;4.4;;
44126;SDS011;29786;50.798;7.302;2023-03-12T02:07:09;5.5;;;4.2;;
44126;SDS011;29786;50.798;7.302;2023-03-12T02:08:15;7.1;;;4.7;;
44126;SDS011;29786;50.798;7.302;2023-03-12T02:10:43;4.9;;;4.2;;
44126;SDS011;29786;50.798;7.302;2023-03-12T02:11:57;9.3;;;4.6;;
44126;SDS011;29786;50.798;7.302;2023-03-12T02:13:11;6.1;;;4.1;;
44126;SDS011;29786;50.798;7.302;2023-03-12T02:15:39;7.7;;;4.3;;
44126;SDS011;29786;50.798;7.302;2023-03-12T02:16:53;10.9;;;5;;
44126;SDS011;29786;50.798;7.302;2023-03-12T02:18:08;6.7;;;4.2;;
44126;SDS011;29786;50.798;7.302;2023-03-12T02:19:26;6.2;;;4.2;;
44126;SDS011;29786;50.798;7.302;2023-03-12T02:21:50;4.4;;;4;;
44126;SDS011;29786;50.798;7.302;2023-03-12T02:23:05;6.2;;;4.1;;
44126;SDS011;29786;50.798;7.302;2023-03-12T02:24:21;6.7;;;4.1;;
44126;SDS011;29786;50.798;7.302;2023-03-12T02:26:46;6.3;;;3.9;;
44126;SDS011;29786;50.798;7.302;2023-03-12T02:28:02;5.9;;;3.8;;
44126;SDS011;29786;50.798;7.302;2023-03-12T02:29:15;6.4;;;4.2;;
44126;SDS011;29786;50.798;7.302;2023-03-12T02:31:44;5.1;;;3.9;;
44126;SDS011;29786;50.798;7.302;2023-03-12T02:32:58;7.9;;;3.9;;
44126;SDS011;29786;50.798;7.302;2023-03-12T02:34:11;5.3;;;4;;
44126;SDS011;29786;50.798;7.302;2023-03-12T02:36:39;7;;;4.6;;
44126;SDS011;29786;50.798;7.302;2023-03-12T02:37:54;5.3;;;4;;
44126;SDS011;29786;50.798;7.302;2023-03-12T02:39:09;5.4;;;3.9;;
44126;SDS011;29786;50.798;7.302;2023-03-12T02:40:38;6.3;;;3.8;;
44126;SDS011;29786;50.798;7.302;2023-03-12T02:42:50;7.6;;;4.6;;
44126;SDS011;29786;50.798;7.302;2023-03-12T02:44:06;6.5;;;4.1;;
44126;SDS011;29786;50.798;7.302;2023-03-12T02:45:18;4.9;;;3.7;;
44126;SDS011;29786;50.798;7.302;2023-03-12T02:47:47;9.2;;;3.9;;
44126;SDS011;29786;50.798;7.302;2023-03-12T02:49:01;5.4;;;4.3;;
44126;SDS011;29786;50.798;7.302;2023-03-12T02:50:15;5.7;;;3.7;;
44126;SDS011;29786;50.798;7.302;2023-03-12T02:52:43;6.1;;;3.4;;
44126;SDS011;29786;50.798;7.302;2023-03-12T02:53:57;5.9;;;3.8;;
44126;SDS011;29786;50.798;7.302;2023-03-12T02:55:11;5.4;;;3.5;;
44126;SDS011;29786;50.798;7.302;2023-03-12T02:57:40;6.1;;;3.9;;
44126;SDS011;29786;50.798;7.302;2023-03-12T02:58:54;6.5;;;3.7;;
44126;SDS011;29786;50.798;7.302;2023-03-12T03:00:08;5.4;;;3.6;;
44126;SDS011;29786;50.798;7.302;2023-03-12T03:01:22;5.6;;;3.5;;
44126;SDS011;29786;50.798;7.302;2023-03-12T03:03:50;5.4;;;3.3;;
44126;SDS011;29786;50.798;7.302;2023-03-12T03:05:05;5.3;;;3.6;;
44126;SDS011;29786;50.798;7.302;2023-03-12T03:06:19;8.9;;;3.7;;
44126;SDS011;29786;50.798;7.302;2023-03-12T03:08:47;6;;;3.5;;
44126;SDS011;29786;50.798;7.302;2023-03-12T03:10:02;4.1;;;3.5;;
44126;SDS011;29786;50.798;7.302;2023-03-12T03:11:15;7.8;;;3.6;;
44126;SDS011;29786;50.798;7.302;2023-03-12T03:13:43;6.7;;;3.2;;
44126;SDS011;29786;50.798;7.302;2023-03-12T03:14:58;5.5;;;3.4;;
44126;SDS011;29786;50.798;7.302;2023-03-12T03:16:12;6.7;;;3.7;;
44126;SDS011;29786;50.798;7.302;2023-03-12T03:17:26;7.4;;;3.8;;
44126;SDS011;29786;50.798;7.302;2023-03-12T03:18:40;7;;;3.8;;
44126;SDS011;29786;50.798;7.302;2023-03-12T03:19:54;8.2;;;4.2;;
44126;SDS011;29786;50.798;7.302;2023-03-12T03:21:08;8.6;;;4.3;;
44126;SDS011;29786;50.798;7.302;2023-03-12T03:22:22;7.4;;;3.8;;
44126;SDS011;29786;50.798;7.302;2023-03-12T03:24:59;6.6;;;3.8;;
44126;SDS011;29786;50.798;7.302;2023-03-12T03:26:13;5.2;;;3.5;;
44126;SDS011;29786;50.798;7.302;2023-03-12T03:28:41;8.4;;;3.7;;
44126;SDS011;29786;50.798;7.302;2023-03-12T03:29:55;4.9;;;3.9;;
44126;SDS011;29786;50.798;7.302;2023-03-12T03:31:10;5.9;;;3.8;;
44126;SDS011;29786;50.798;7.302;2023-03-12T03:32:24;6.9;;;3.8;;
44126;SDS011;29786;50.798;7.302;2023-03-12T03:34:52;6;;;3.6;;
44126;SDS011;29786;50.798;7.302;2023-03-12T03:36:06;5.2;;;3.4;;
44126;SDS011;29786;50.798;7.302;2023-03-12T03:37:20;6.1;;;4.1;;
44126;SDS011;29786;50.798;7.302;2023-03-12T03:39:48;5.7;;;3.6;;
44126;SDS011;29786;50.798;7.302;2023-03-12T03:41:03;5.7;;;3.8;;
44126;SDS011;29786;50.798;7.302;2023-03-12T03:42:17;8.5;;;3.9;;
44126;SDS011;29786;50.798;7.302;2023-03-12T03:44:45;7;;;3.6;;
44126;SDS011;29786;50.798;7.302;2023-03-12T03:46:00;6.9;;;3.7;;
44126;SDS011;29786;50.798;7.302;2023-03-12T03:47:13;6.1;;;3.5;;
44126;SDS011;29786;50.798;7.302;2023-03-12T03:49:41;5.6;;;3.2;;
44126;SDS011;29786;50.798;7.302;2023-03-12T03:51:04;6.8;;;3.3;;
44126;SDS011;29786;50.798;7.302;2023-03-12T03:52:10;5.8;;;3;;
44126;SDS011;29786;50.798;7.302;2023-03-12T03:53:24;4.7;;;3.6;;
44126;SDS011;29786;50.798;7.302;2023-03-12T03:55:52;4.5;;;3.5;;
44126;SDS011;29786;50.798;7.302;2023-03-12T03:57:06;6.1;;;3.1;;
44126;SDS011;29786;50.798;7.302;2023-03-12T03:58:20;7.1;;;3.4;;
44126;SDS011;29786;50.798;7.302;2023-03-12T04:00:49;6;;;3.7;;
44126;SDS011;29786;50.798;7.302;2023-03-12T04:02:03;5;;;3.3;;
44126;SDS011;29786;50.798;7.302;2023-03-12T04:03:17;6.9;;;3.4;;
44126;SDS011;29786;50.798;7.302;2023-03-12T04:05:45;5.7;;;3.3;;
44126;SDS011;29786;50.798;7.302;2023-03-12T04:06:59;5.8;;;3.5;;
44126;SDS011;29786;50.798;7.302;2023-03-12T04:08:13;5;;;3.4;;
44126;SDS011;29786;50.798;7.302;2023-03-12T04:10:42;6.3;;;3.6;;
44126;SDS011;29786;50.798;7.302;2023-03-12T04:11:56;6.3;;;3.4;;
44126;SDS011;29786;50.798;7.302;2023-03-12T04:13:10;6.3;;;3.4;;
44126;SDS011;29786;50.798;7.302;2023-03-12T04:14:24;5.9;;;3.1;;
44126;SDS011;29786;50.798;7.302;2023-03-12T04:16:52;4.8;;;3.1;;
44126;SDS011;29786;50.798;7.302;2023-03-12T04:18:07;6;;;3.1;;
44126;SDS011;29786;50.798;7.302;2023-03-12T04:19:21;5.3;;;3;;
44126;SDS011;29786;50.798;7.302;2023-03-12T04:21:49;4.2;;;3.3;;
44126;SDS011;29786;50.798;7.302;2023-03-12T04:23:03;6.3;;;3.1;;
44126;SDS011;29786;50.798;7.302;2023-03-12T04:24:17;6.2;;;2.9;;
44126;SDS011;29786;50.798;7.302;2023-03-12T04:26:45;4.6;;;3;;
44126;SDS011;29786;50.798;7.302;2023-03-12T04:28:00;4.7;;;4.1;;
44126;SDS011;29786;50.798;7.302;2023-03-12T04:29:14;6.5;;;3.1;;
44126;SDS011;29786;50.798;7.302;2023-03-12T04:31:42;5.4;;;3.8;;
44126;SDS011;29786;50.798;7.302;2023-03-12T04:32:56;7.1;;;3.4;;
44126;SDS011;29786;50.798;7.302;2023-03-12T04:34:10;6.2;;;3.8;;
44126;SDS011;29786;50.798;7.302;2023-03-12T04:36:39;4.4;;;3.8;;
44126;SDS011;29786;50.798;7.302;2023-03-12T04:37:53;5.8;;;3.2;;
44126;SDS011;29786;50.798;7.302;2023-03-12T04:39:07;4.6;;;3.2;;
44126;SDS011;29786;50.798;7.302;2023-03-12T04:40:21;9;;;3.4;;
44126;SDS011;29786;50.798;7.302;2023-03-12T04:42:49;3.4;;;3.1;;
44126;SDS011;29786;50.798;7.302;2023-03-12T04:44:03;5.3;;;3.2;;
44126;SDS011;29786;50.798;7.302;2023-03-12T04:45:17;7.6;;;3.5;;
44126;SDS011;29786;50.798;7.302;2023-03-12T04:46:32;4.6;;;3;;
44126;SDS011;29786;50.798;7.302;2023-03-12T04:47:46;3.3;;;2.7;;
44126;SDS011;29786;50.798;7.302;2023-03-12T04:49:00;4.7;;;3.1;;
44126;SDS011;29786;50.798;7.302;2023-03-12T04:50:14;4.3;;;2.7;;
44126;SDS011;29786;50.798;7.302;2023-03-12T04:52:42;8.1;;;3.1;;
44126;SDS011;29786;50.798;7.302;2023-03-12T04:53:57;4.7;;;2.8;;
44126;SDS011;29786;50.798;7.302;2023-03-12T04:55:10;6;;;3;;
44126;SDS011;29786;50.798;7.302;2023-03-12T04:57:39;4.9;;;3.4;;
44126;SDS011;29786;50.798;7.302;2023-03-12T04:58:53;3.9;;;3;;
44126;SDS011;29786;50.798;7.302;2023-03-12T05:00:07;5.4;;;3.4;;
44126;SDS011;29786;50.798;7.302;2023-03-12T05:01:23;6.7;;;2.8;;
44126;SDS011;29786;50.798;7.302;2023-03-12T05:03:50;4.9;;;3.1;;
44126;SDS011;29786;50.798;7.302;2023-03-12T05:05:04;4.4;;;2.6;;
44126;SDS011;29786;50.798;7.302;2023-03-12T05:06:18;4.6;;;3.2;;
44126;SDS011;29786;50.798;7.302;2023-03-12T05:08:46;4.4;;;2.8;;
44126;SDS011;29786;50.798;7.302;2023-03-12T05:10:00;6.4;;;3.6;;
44126;SDS011;29786;50.798;7.302;2023-03-12T05:11:14;4.7;;;3.4;;
44126;SDS011;29786;50.798;7.302;2023-03-12T05:13:43;6.9;;;3;;
44126;SDS011;29786;50.798;7.302;2023-03-12T05:14:57;6.2;;;3.2;;
44126;SDS011;29786;50.798;7.302;2023-03-12T05:16:11;6.3;;;3.6;;
44126;SDS011;29786;50.798;7.302;2023-03-12T05:18:39;7.2;;;3.4;;
44126;SDS011;29786;50.798;7.302;2023-03-12T05:19:53;5.5;;;3.1;;
44126;SDS011;29786;50.798;7.302;2023-03-12T05:21:09;7.9;;;3.3;;
44126;SDS011;29786;50.798;7.302;2023-03-12T05:22:21;8.5;;;3.7;;
44126;SDS011;29786;50.798;7.302;2023-03-12T05:24:50;5.5;;;3.1;;
44126;SDS011;29786;50.798;7.302;2023-03-12T05:26:04;6.3;;;3.3;;
44126;SDS011;29786;50.798;7.302;2023-03-12T05:27:18;7.5;;;3.8;;
44126;SDS011;29786;50.798;7.302;2023-03-12T05:29:46;5.6;;;3.4;;
44126;SDS011;29786;50.798;7.302;2023-03-12T05:31:00;6.8;;;3.2;;
44126;SDS011;29786;50.798;7.302;2023-03-12T05:32:14;7.3;;;3.6;;
44126;SDS011;29786;50.798;7.302;2023-03-12T05:34:43;5.4;;;3.6;;
44126;SDS011;29786;50.798;7.302;2023-03-12T05:35:57;3.8;;;3.4;;
44126;SDS011;29786;50.798;7.302;2023-03-12T05:37:11;7.9;;;4.1;;
44126;SDS011;29786;50.798;7.302;2023-03-12T05:39:39;6.7;;;3.9;;
44126;SDS011;29786;50.798;7.302;2023-03-12T05:40:54;5.9;;;3.7;;
44126;SDS011;29786;50.798;7.302;2023-03-12T05:42:08;4.5;;;3.7;;
44126;SDS011;29786;50.798;7.302;2023-03-12T05:43:22;6.3;;;4;;
44126;SDS011;29786;50.798;7.302;2023-03-12T05:45:50;6.4;;;4.2;;
44126;SDS011;29786;50.798;7.302;2023-03-12T05:47:04;7;;;3.5;;
44126;SDS011;29786;50.798;7.302;2023-03-12T05:48:18;7.4;;;4.2;;
44126;SDS011;29786;50.798;7.302;2023-03-12T05:50:47;8.6;;;4.2;;
44126;SDS011;29786;50.798;7.302;2023-03-12T05:52:01;6.9;;;3.6;;
44126;SDS011;29786;50.798;7.302;2023-03-12T05:53:15;5.3;;;3.8;;
44126;SDS011;29786;50.798;7.302;2023-03-12T05:55:43;7.9;;;3.3;;
44126;SDS011;29786;50.798;7.302;2023-03-12T05:56:57;8;;;3.9;;
44126;SDS011;29786;50.798;7.302;2023-03-12T05:58:11;10.6;;;4.2;;
44126;SDS011;29786;50.798;7.302;2023-03-12T06:00:40;9.8;;;3.8;;
44126;SDS011;29786;50.798;7.302;2023-03-12T06:01:54;8.2;;;3.9;;
44126;SDS011;29786;50.798;7.302;2023-03-12T06:03:08;6.1;;;4.1;;
44126;SDS011;29786;50.798;7.302;2023-03-12T06:04:22;6.2;;;3.7;;
44126;SDS011;29786;50.798;7.302;2023-03-12T06:06:50;6.7;;;3.9;;
44126;SDS011;29786;50.798;7.302;2023-03-12T06:08:04;7.1;;;4.7;;
44126;SDS011;29786;50.798;7.302;2023-03-12T06:09:18;9.2;;;4;;
44126;SDS011;29786;50.798;7.302;2023-03-12T06:11:47;6.3;;;4.2;;
44126;SDS011;29786;50.798;7.302;2023-03-12T06:13:01;4.6;;;3.7;;
44126;SDS011;29786;50.798;7.302;2023-03-12T06:14:15;6.9;;;4.1;;
44126;SDS011;29786;50.798;7.302;2023-03-12T06:16:43;8.6;;;4.2;;
44126;SDS011;29786;50.798;7.302;2023-03-12T06:17:57;8.2;;;4.4;;
44126;SDS011;29786;50.798;7.302;2023-03-12T06:19:12;6.8;;;4;;
44126;SDS011;29786;50.798;7.302;2023-03-12T06:21:41;5.6;;;3.7;;
44126;SDS011;29786;50.798;7.302;2023-03-12T06:22:54;9.3;;;4.1;;
44126;SDS011;29786;50.798;7.302;2023-03-12T06:24:08;6.8;;;4.1;;
44126;SDS011;29786;50.798;7.302;2023-03-12T06:25:22;7.4;;;4;;
44126;SDS011;29786;50.798;7.302;2023-03-12T06:27:50;8.4;;;4.3;;
44126;SDS011;29786;50.798;7.302;2023-03-12T06:29:05;4.9;;;4.1;;
44126;SDS011;29786;50.798;7.302;2023-03-12T06:30:19;9;;;4.2;;
44126;SDS011;29786;50.798;7.302;2023-03-12T06:32:47;9.4;;;4.5;;
44126;SDS011;29786;50.798;7.302;2023-03-12T06:34:01;6.7;;;4.1;;
44126;SDS011;29786;50.798;7.302;2023-03-12T06:35:15;6.2;;;3.9;;
44126;SDS011;29786;50.798;7.302;2023-03-12T06:37:44;9.7;;;4.5;;
44126;SDS011;29786;50.798;7.302;2023-03-12T06:38:58;5.4;;;3.8;;
44126;SDS011;29786;50.798;7.302;2023-03-12T06:40:12;8.6;;;4.3;;
44126;SDS011;29786;50.798;7.302;2023-03-12T06:42:40;9.8;;;4.2;;
44126;SDS011;29786;50.798;7.302;2023-03-12T06:43:54;10.8;;;4.4;;
44126;SDS011;29786;50.798;7.302;2023-03-12T06:45:08;5.5;;;4.1;;
44126;SDS011;29786;50.798;7.302;2023-03-12T06:46:23;6.7;;;4.1;;
44126;SDS011;29786;50.798;7.302;2023-03-12T06:48:51;5.3;;;4.1;;
44126;SDS011;29786;50.798;7.302;2023-03-12T06:50:05;7.9;;;4.3;;
44126;SDS011;29786;50.798;7.302;2023-03-12T06:51:19;8.4;;;4.2;;
44126;SDS011;29786;50.798;7.302;2023-03-12T06:53:47;7.4;;;4.8;;
44126;SDS011;29786;50.798;7.302;2023-03-12T06:55:01;6.2;;;3.9;;
44126;SDS011;29786;50.798;7.302;2023-03-12T06:56:16;6.9;;;4.3;;
44126;SDS011;29786;50.798;7.302;2023-03-12T06:58:44;5.7;;;3.9;;
44126;SDS011;29786;50.798;7.302;2023-03-12T06:59:58;7.8;;;4.2;;
44126;SDS011;29786;50.798;7.302;2023-03-12T07:01:12;10;;;4;;
44126;SDS011;29786;50.798;7.302;2023-03-12T07:03:40;8.1;;;4.2;;
44126;SDS011;29786;50.798;7.302;2023-03-12T07:04:55;6.8;;;3.9;;
44126;SDS011;29786;50.798;7.302;2023-03-12T07:06:13;5.2;;;4.2;;
44126;SDS011;29786;50.798;7.302;2023-03-12T07:07:23;7.3;;;4;;
44126;SDS011;29786;50.798;7.302;2023-03-12T07:09:51;8.6;;;3.8;;
44126;SDS011;29786;50.798;7.302;2023-03-12T07:11:05;6.8;;;3.8;;
44126;SDS011;29786;50.798;7.302;2023-03-12T07:12:19;8;;;4.3;;
44126;SDS011;29786;50.798;7.302;2023-03-12T07:14:48;7.6;;;3.6;;
44126;SDS011;29786;50.798;7.302;2023-03-12T07:16:02;5.7;;;3.7;;
44126;SDS011;29786;50.798;7.302;2023-03-12T07:17:16;6.5;;;4;;
44126;SDS011;29786;50.798;7.302;2023-03-12T07:19:44;10.2;;;4.5;;
44126;SDS011;29786;50.798;7.302;2023-03-12T07:20:58;5.1;;;3.4;;
44126;SDS011;29786;50.798;7.302;2023-03-12T07:22:12;7.4;;;4.1;;
44126;SDS011;29786;50.798;7.302;2023-03-12T07:24:41;7.8;;;4.2;;
44126;SDS011;29786;50.798;7.302;2023-03-12T07:25:55;8.3;;;4.1;;
44126;SDS011;29786;50.798;7.302;2023-03-12T07:27:09;7.9;;;4;;
44126;SDS011;29786;50.798;7.302;2023-03-12T07:28:23;6;;;3.7;;
44126;SDS011;29786;50.798;7.302;2023-03-12T07:30:51;7.4;;;4.4;;
44126;SDS011;29786;50.798;7.302;2023-03-12T07:32:05;7.7;;;4.5;;
44126;SDS011;29786;50.798;7.302;2023-03-12T07:33:20;6.4;;;4;;
44126;SDS011;29786;50.798;7.302;2023-03-12T07:35:48;6.8;;;4.5;;
44126;SDS011;29786;50.798;7.302;2023-03-12T07:37:02;5.9;;;4;;
44126;SDS011;29786;50.798;7.302;2023-03-12T07:38:16;9.5;;;4.7;;
44126;SDS011;29786;50.798;7.302;2023-03-12T07:40:48;7.2;;;4.7;;
44126;SDS011;29786;50.798;7.302;2023-03-12T07:41:58;10.2;;;4.9;;
44126;SDS011;29786;50.798;7.302;2023-03-12T07:43:13;9.7;;;5.9;;
44126;SDS011;29786;50.798;7.302;2023-03-12T07:45:41;7.4;;;4.7;;
44126;SDS011;29786;50.798;7.302;2023-03-12T07:46:55;5.3;;;4.5;;
44126;SDS011;29786;50.798;7.302;2023-03-12T07:48:09;5.9;;;4;;
44126;SDS011;29786;50.798;7.302;2023-03-12T07:49:23;5.6;;;3.7;;
44126;SDS011;29786;50.798;7.302;2023-03-12T07:51:51;10.5;;;4.8;;
44126;SDS011;29786;50.798;7.302;2023-03-12T07:53:06;9.7;;;4.1;;
44126;SDS011;29786;50.798;7.302;2023-03-12T07:54:20;5.1;;;3.6;;
44126;SDS011;29786;50.798;7.302;2023-03-12T07:56:48;6.5;;;4;;
44126;SDS011;29786;50.798;7.302;2023-03-12T07:58:02;7;;;3.8;;
44126;SDS011;29786;50.798;7.302;2023-03-12T07:59:16;8.1;;;4.6;;
44126;SDS011;29786;50.798;7.302;2023-03-12T08:01:45;6.9;;;4.3;;
44126;SDS011;29786;50.798;7.302;2023-03-12T08:02:59;6.2;;;4;;
44126;SDS011;29786;50.798;7.302;2023-03-12T08:04:13;9.3;;;4.3;;
44126;SDS011;29786;50.798;7.302;2023-03-12T08:06:41;6.9;;;4.2;;
44126;SDS011;29786;50.798;7.302;2023-03-12T08:07:55;6.6;;;4.1;;
44126;SDS011;29786;50.798;7.302;2023-03-12T08:09:10;8.1;;;4.5;;
44126;SDS011;29786;50.798;7.302;2023-03-12T08:10:24;7.8;;;4.3;;
44126;SDS011;29786;50.798;7.302;2023-03-12T08:12:52;5.8;;;4.1;;
44126;SDS011;29786;50.798;7.302;2023-03-12T08:14:06;7.7;;;4.5;;
44126;SDS011;29786;50.798;7.302;2023-03-12T08:15:20;4.5;;;4.1;;
44126;SDS011;29786;50.798;7.302;2023-03-12T08:17:48;8.3;;;4.1;;
44126;SDS011;29786;50.798;7.302;2023-03-12T08:19:02;6.4;;;3.9;;
44126;SDS011;29786;50.798;7.302;2023-03-12T08:20:17;5.4;;;4.1;;
44126;SDS011;29786;50.798;7.302;2023-03-12T08:22:45;6.7;;;4;;
44126;SDS011;29786;50.798;7.302;2023-03-12T08:23:59;7.4;;;4.5;;
44126;SDS011;29786;50.798;7.302;2023-03-12T08:25:13;8.8;;;3.9;;
44126;SDS011;29786;50.798;7.302;2023-03-12T08:27:41;4.9;;;4.4;;
44126;SDS011;29786;50.798;7.302;2023-03-12T08:28:56;6.7;;;4.5;;
44126;SDS011;29786;50.798;7.302;2023-03-12T08:30:10;8.2;;;4.1;;
44126;SDS011;29786;50.798;7.302;2023-03-12T08:31:24;4.6;;;4;;
44126;SDS011;29786;50.798;7.302;2023-03-12T08:33:52;6.4;;;4;;
44126;SDS011;29786;50.798;7.302;2023-03-12T08:35:06;4.9;;;4.5;;
44126;SDS011;29786;50.798;7.302;2023-03-12T08:36:20;6.7;;;4.2;;
44126;SDS011;29786;50.798;7.302;2023-03-12T08:38:49;5.1;;;3.9;;
44126;SDS011;29786;50.798;7.302;2023-03-12T08:40:03;5.4;;;4;;
44126;SDS011;29786;50.798;7.302;2023-03-12T08:41:17;6.8;;;4.2;;
44126;SDS011;29786;50.798;7.302;2023-03-12T08:43:45;7.1;;;4.3;;
44126;SDS011;29786;50.798;7.302;2023-03-12T08:44:59;7.2;;;4.1;;
44126;SDS011;29786;50.798;7.302;2023-03-12T08:46:13;5.5;;;4.4;;
44126;SDS011;29786;50.798;7.302;2023-03-12T08:48:42;6.4;;;4.3;;
44126;SDS011;29786;50.798;7.302;2023-03-12T08:49:56;5.7;;;4;;
44126;SDS011;29786;50.798;7.302;2023-03-12T08:51:10;5.7;;;4;;
44126;SDS011;29786;50.798;7.302;2023-03-12T08:53:38;6;;;4.2;;
44126;SDS011;29786;50.798;7.302;2023-03-12T08:54:52;6.7;;;4.2;;
44126;SDS011;29786;50.798;7.302;2023-03-12T08:56:06;7.3;;;4.4;;
44126;SDS011;29786;50.798;7.302;2023-03-12T08:57:20;8;;;4.5;;
44126;SDS011;29786;50.798;7.302;2023-03-12T08:59:49;7.3;;;4.4;;
44126;SDS011;29786;50.798;7.302;2023-03-12T09:01:07;5.2;;;4.3;;
44126;SDS011;29786;50.798;7.302;2023-03-12T09:02:17;6.8;;;4;;
44126;SDS011;29786;50.798;7.302;2023-03-12T09:04:47;7.6;;;4.2;;
44126;SDS011;29786;50.798;7.302;2023-03-12T09:06:08;8.3;;;7.5;;
44126;SDS011;29786;50.798;7.302;2023-03-12T09:07:14;5.4;;;4.8;;
44126;SDS011;29786;50.798;7.302;2023-03-12T09:09:42;6.3;;;4.3;;
44126;SDS011;29786;50.798;7.302;2023-03-12T09:10:56;6.4;;;4.3;;
44126;SDS011;29786;50.798;7.302;2023-03-12T09:12:10;6.4;;;4.4;;
44126;SDS011;29786;50.798;7.302;2023-03-12T09:14:39;10.1;;;4.5;;
44126;SDS011;29786;50.798;7.302;2023-03-12T09:15:56;7.4;;;4.8;;
44126;SDS011;29786;50.798;7.302;2023-03-12T09:17:07;7.9;;;4.5;;
44126;SDS011;29786;50.798;7.302;2023-03-12T09:18:21;7;;;4.3;;
44126;SDS011;29786;50.798;7.302;2023-03-12T09:20:49;8.6;;;4.6;;
44126;SDS011;29786;50.798;7.302;2023-03-12T09:22:03;7.5;;;4.6;;
44126;SDS011;29786;50.798;7.302;2023-03-12T09:23:17;11.1;;;5.1;;
44126;SDS011;29786;50.798;7.302;2023-03-12T09:24:31;11.2;;;5.3;;
44126;SDS011;29786;50.798;7.302;2023-03-12T09:25:46;7;;;4.8;;
44126;SDS011;29786;50.798;7.302;2023-03-12T09:27:00;7;;;4.3;;
44126;SDS011;29786;50.798;7.302;2023-03-12T09:28:14;7;;;4.5;;
44126;SDS011;29786;50.798;7.302;2023-03-12T09:30:42;8.1;;;4.4;;
44126;SDS011;29786;50.798;7.302;2023-03-12T09:31:57;6.4;;;4.3;;
44126;SDS011;29786;50.798;7.302;2023-03-12T09:33:10;7.4;;;4.7;;
44126;SDS011;29786;50.798;7.302;2023-03-12T09:35:39;6.7;;;4.7;;
44126;SDS011;29786;50.798;7.302;2023-03-12T09:36:53;7;;;4.2;;
44126;SDS011;29786;50.798;7.302;2023-03-12T09:38:08;6.9;;;4.5;;
44126;SDS011;29786;50.798;7.302;2023-03-12T09:39:21;5.6;;;4.3;;
44126;SDS011;29786;50.798;7.302;2023-03-12T09:41:49;8.5;;;5.1;;
44126;SDS011;29786;50.798;7.302;2023-03-12T09:43:05;11.4;;;6.3;;
44126;SDS011;29786;50.798;7.302;2023-03-12T09:44:27;6.7;;;5.2;;
44126;SDS011;29786;50.798;7.302;2023-03-12T09:46:48;9.2;;;4.9;;
44126;SDS011;29786;50.798;7.302;2023-03-12T09:48:01;7.2;;;5.7;;
44126;SDS011;29786;50.798;7.302;2023-03-12T09:49:17;9.5;;;5.7;;
44126;SDS011;29786;50.798;7.302;2023-03-12T09:51:43;11.1;;;6.3;;
44126;SDS011;29786;50.798;7.302;2023-03-12T09:52:58;6.6;;;5.5;;
44126;SDS011;29786;50.798;7.302;2023-03-12T09:54:20;8.8;;;5.6;;
44126;SDS011;29786;50.798;7.302;2023-03-12T09:55:26;5.5;;;4.9;;
44126;SDS011;29786;50.798;7.302;2023-03-12T09:56:39;8.1;;;5.6;;
44126;SDS011;29786;50.798;7.302;2023-03-12T09:57:53;6.5;;;5.4;;